Time;durP1;ratioP1;P1;durP2;ratioP2;P2;SDS_P1;SDS_P2;PMS_P1;PMS_P2;Temp;Humidity;BMP_temperature;BMP_pressure;BME280_temperature;BME280_humidity;BME280_pressure;Samples;Min_cycle;Max_cycle;Signal;HPM_P1;HPM_P2
2021/04/20 04:01:24;;;;;;;24.77;19.00;;;4.60;99.90;;;;;;5479802;23;20233;-73
2021/04/20 04:03:53;;;;;;;29.85;21.00;;;4.60;99.90;;;;;;4916422;29;20234;-73
2021/04/20 04:06:21;;;;;;;32.60;21.02;;;4.50;99.90;;;;;;4916451;29;20581;-73
2021/04/20 04:08:50;;;;;;;32.42;19.33;;;4.50;99.90;;;;;;4916570;29;20224;-73
2021/04/20 04:11:16;;;;;;;28.98;18.60;;;4.50;99.90;;;;;;4916550;29;20293;-72
2021/04/20 04:13:44;;;;;;;21.10;18.52;;;4.50;99.90;;;;;;4916732;29;20198;-73
2021/04/20 04:16:12;;;;;;;26.77;19.63;;;4.40;99.90;;;;;;4916559;29;20598;-74
2021/04/20 04:18:45;;;;;;;23.45;18.45;;;4.40;99.90;;;;;;4915869;29;20210;-73
2021/04/20 04:21:14;;;;;;;28.02;20.08;;;4.40;99.90;;;;;;4915945;29;20234;-73
2021/04/20 04:23:46;;;;;;;33.33;21.38;;;4.50;99.90;;;;;;4916189;29;20237;-73
2021/04/20 04:26:16;;;;;;;29.52;21.00;;;4.50;99.90;;;;;;4916945;29;20294;-72
2021/04/20 04:28:47;;;;;;;30.70;20.45;;;4.50;99.90;;;;;;4916308;29;20227;-72
2021/04/20 04:31:14;;;;;;;31.55;20.50;;;4.50;99.90;;;;;;4916600;29;20249;-71
2021/04/20 04:33:43;;;;;;;28.90;21.00;;;4.50;99.90;;;;;;4915574;29;20214;-72
2021/04/20 04:36:10;;;;;;;34.83;21.75;;;4.60;99.90;;;;;;4907360;29;20202;-73
2021/04/20 04:38:39;;;;;;;29.25;21.42;;;4.60;99.90;;;;;;4915772;29;20211;-73
2021/04/20 04:41:06;;;;;;;31.85;21.58;;;4.60;99.90;;;;;;4910970;29;20219;-73
2021/04/20 04:43:34;;;;;;;25.42;20.98;;;4.60;99.90;;;;;;4915501;29;20274;-73
2021/04/20 04:46:00;;;;;;;31.23;22.65;;;4.70;99.90;;;;;;4912195;29;20199;-73
2021/04/20 04:48:27;;;;;;;29.25;24.80;;;4.80;99.90;;;;;;4897082;29;20223;-73
2021/04/20 04:50:55;;;;;;;36.40;24.15;;;5.10;99.90;;;;;;4899450;29;20233;-73
2021/04/20 04:53:22;;;;;;;26.45;19.75;;;5.50;99.90;;;;;;4914889;29;20215;-73
2021/04/20 04:55:48;;;;;;;24.63;18.35;;;5.80;99.90;;;;;;4900036;29;20222;-73
2021/04/20 04:58:16;;;;;;;19.58;17.00;;;6.10;99.90;;;;;;4915301;29;20596;-74
2021/04/20 05:00:43;;;;;;;20.08;15.98;;;6.40;99.90;;;;;;4913603;29;20238;-73
2021/04/20 05:03:10;;;;;;;18.42;15.05;;;6.40;99.90;;;;;;4914952;29;20221;-73
2021/04/20 05:05:37;;;;;;;22.40;15.18;;;6.60;99.90;;;;;;4911633;29;20207;-72
2021/04/20 05:08:05;;;;;;;19.70;15.75;;;6.70;99.90;;;;;;4896108;29;20284;-74
2021/04/20 05:10:32;;;;;;;20.05;15.63;;;6.80;99.90;;;;;;4899406;29;20238;-73
2021/04/20 05:13:00;;;;;;;18.25;14.55;;;6.80;99.90;;;;;;4913215;29;20222;-73
2021/04/20 05:15:28;;;;;;;16.75;14.50;;;6.90;99.90;;;;;;4912934;29;20199;-73
2021/04/20 05:17:54;;;;;;;16.63;14.80;;;6.90;99.90;;;;;;4897854;29;20207;-73
2021/04/20 05:20:22;;;;;;;22.15;14.82;;;7.00;99.90;;;;;;4901430;29;20215;-73
2021/04/20 05:22:50;;;;;;;18.80;14.32;;;7.10;99.90;;;;;;4917936;29;20217;-73
2021/04/20 05:25:18;;;;;;;15.73;13.63;;;7.20;99.90;;;;;;4905761;29;20263;-73
2021/04/20 05:27:46;;;;;;;19.60;14.82;;;7.30;99.90;;;;;;4919113;29;20242;-73
2021/04/20 05:30:13;;;;;;;21.95;15.65;;;7.40;99.90;;;;;;4920664;29;20655;-73
2021/04/20 05:32:42;;;;;;;18.92;15.50;;;7.40;99.90;;;;;;4920547;29;20273;-75
2021/04/20 05:35:09;;;;;;;14.90;13.27;;;7.40;99.90;;;;;;4922877;29;20297;-73
2021/04/20 05:37:37;;;;;;;17.90;14.15;;;7.60;99.90;;;;;;4915338;29;20215;-76
2021/04/20 05:40:06;;;;;;;18.75;14.00;;;7.70;99.90;;;;;;4924048;29;20210;-73
2021/04/20 05:42:33;;;;;;;15.82;13.45;;;7.90;99.90;;;;;;4906267;29;20210;-74
2021/04/20 05:44:59;;;;;;;18.27;14.02;;;7.60;99.90;;;;;;4918186;29;20230;-74
2021/04/20 05:47:26;;;;;;;15.82;13.43;;;7.60;99.90;;;;;;4920432;29;20235;-74
2021/04/20 05:49:56;;;;;;;21.08;13.13;;;7.80;99.90;;;;;;4911610;29;20207;-74
2021/04/20 05:52:22;;;;;;;15.00;13.55;;;7.90;99.90;;;;;;4902264;29;20223;-73
2021/04/20 05:54:48;;;;;;;13.85;12.55;;;8.10;99.90;;;;;;4909924;29;20210;-73
2021/04/20 05:57:17;;;;;;;13.80;12.38;;;8.20;99.90;;;;;;4904771;29;20235;-74
2021/04/20 05:59:45;;;;;;;16.48;11.55;;;8.40;99.90;;;;;;4910695;29;20202;-74
2021/04/20 06:02:15;;;;;;;19.90;11.30;;;8.80;99.90;;;;;;4916910;29;20671;-73
2021/04/20 06:04:42;;;;;;;15.82;10.85;;;9.20;99.90;;;;;;4915069;29;20218;-72
2021/04/20 06:07:09;;;;;;;13.45;11.32;;;9.60;99.90;;;;;;4901967;29;20243;-72
2021/04/20 06:09:36;;;;;;;11.60;10.43;;;10.10;99.90;;;;;;4906327;29;20210;-73
2021/04/20 06:12:02;;;;;;;12.60;10.07;;;10.70;99.90;;;;;;4919265;29;20226;-73
2021/04/20 06:14:29;;;;;;;10.60;9.60;;;10.80;99.90;;;;;;4912541;29;20470;-73
2021/04/20 06:16:56;;;;;;;11.73;10.73;;;11.20;99.90;;;;;;4919838;29;20466;-73
2021/04/20 06:19:22;;;;;;;12.47;11.27;;;11.70;99.90;;;;;;4912114;29;20488;-73
2021/04/20 06:21:49;;;;;;;11.37;10.43;;;12.20;99.90;;;;;;4896005;29;20498;-73
2021/04/20 06:24:15;;;;;;;11.90;10.60;;;12.40;99.90;;;;;;4898907;29;20488;-74
2021/04/20 06:26:41;;;;;;;12.40;11.10;;;12.20;99.90;;;;;;4914894;29;20558;-73
2021/04/20 06:29:08;;;;;;;11.90;10.77;;;12.20;99.90;;;;;;4914388;29;20463;-73
2021/04/20 06:31:34;;;;;;;13.50;12.00;;;12.40;99.90;;;;;;4896310;29;20975;-73
2021/04/20 06:34:02;;;;;;;13.20;11.90;;;12.50;99.90;;;;;;4898965;29;20454;-73
2021/04/20 06:36:29;;;;;;;11.03;9.90;;;11.80;99.90;;;;;;4896527;29;20526;-73
2021/04/20 06:38:56;;;;;;;12.70;11.40;;;11.50;99.90;;;;;;4896808;29;20956;-74
2021/04/20 06:41:27;;;;;;;12.33;11.03;;;11.40;99.90;;;;;;4899231;29;20506;-73
2021/04/20 06:43:57;;;;;;;12.83;11.20;;;11.20;99.90;;;;;;4900582;29;20487;-73
2021/04/20 06:46:28;;;;;;;11.97;10.73;;;11.40;99.90;;;;;;4918028;29;20459;-73
2021/04/20 06:48:58;;;;;;;12.47;11.23;;;11.20;99.90;;;;;;4918028;29;20462;-73
2021/04/20 06:51:34;;;;;;;11.33;10.27;;;11.00;99.90;;;;;;4903213;29;20491;-74
2021/04/20 06:54:09;;;;;;;12.17;10.00;;;11.00;99.90;;;;;;4901091;29;20471;-73
2021/04/20 06:56:39;;;;;;;13.90;12.13;;;10.70;99.90;;;;;;4902020;29;20467;-73
2021/04/20 06:59:12;;;;;;;12.07;9.50;;;10.50;99.90;;;;;;4899501;29;20894;-72
2021/04/20 07:01:42;;;;;;;15.05;11.52;;;10.50;99.90;;;;;;4899604;29;20491;-72
2021/04/20 07:04:14;;;;;;;10.27;9.18;;;10.40;99.90;;;;;;4899825;29;20235;-71
2021/04/20 07:06:54;;;;;;;10.48;9.13;;;10.10;99.90;;;;;;4911272;29;20242;-72
2021/04/20 07:09:23;;;;;;;12.13;8.80;;;9.70;99.90;;;;;;4917357;29;20266;-71
2021/04/20 07:11:51;;;;;;;9.55;8.63;;;9.50;99.90;;;;;;4916978;29;20246;-71
2021/04/20 07:14:29;;;;;;;9.40;8.50;;;9.50;99.90;;;;;;4917608;29;20631;-71
2021/04/20 07:17:03;;;;;;;8.43;7.63;;;9.40;99.90;;;;;;4910533;29;20217;-72
2021/04/20 07:19:45;;;;;;;9.63;8.70;;;9.40;99.90;;;;;;4898626;29;20752;-72
2021/04/20 07:22:38;;;;;;;9.88;8.35;;;9.30;99.90;;;;;;4908715;29;20278;-72
2021/04/20 07:25:17;;;;;;;11.80;7.93;;;9.30;99.90;;;;;;4910904;29;20278;-72
2021/04/20 07:27:58;;;;;;;13.23;8.20;;;9.20;99.90;;;;;;4917994;29;20319;-72
2021/04/20 07:30:30;;;;;;;10.27;8.30;;;9.30;99.90;;;;;;4917440;29;20211;-72
2021/04/20 07:33:26;;;;;;;8.10;7.30;;;9.30;99.90;;;;;;4901042;29;20223;-72
2021/04/20 07:35:58;;;;;;;14.05;8.18;;;9.40;99.90;;;;;;4889490;29;20219;-71
2021/04/20 07:38:34;;;;;;;12.70;7.50;;;9.60;99.90;;;;;;4900608;29;20200;-71
2021/04/20 07:41:10;;;;;;;10.13;6.95;;;9.70;99.90;;;;;;4908562;29;20233;-72
2021/04/20 07:43:51;;;;;;;9.05;7.20;;;9.80;99.90;;;;;;4916810;29;20286;-72
2021/04/20 07:46:21;;;;;;;7.80;7.20;;;9.70;99.90;;;;;;4914918;29;20207;-72
2021/04/20 07:48:55;;;;;;;7.22;6.60;;;9.70;99.90;;;;;;4921864;29;20626;-71
2021/04/20 07:51:28;;;;;;;12.30;8.07;;;9.70;99.90;;;;;;4904639;29;20227;-71
2021/04/20 07:54:06;;;;;;;11.32;7.82;;;9.80;99.90;;;;;;4901951;29;20611;-72
2021/04/20 07:56:38;;;;;;;8.57;7.68;;;9.80;99.90;;;;;;4917682;29;20218;-71
2021/04/20 07:59:10;;;;;;;8.82;7.63;;;9.90;99.90;;;;;;4908589;29;20655;-71
2021/04/20 08:01:42;;;;;;;8.77;7.75;;;10.00;99.90;;;;;;4897470;29;20235;-71
2021/04/20 08:04:23;;;;;;;7.97;7.15;;;10.00;99.90;;;;;;4905365;29;20240;-71
2021/04/20 08:06:51;;;;;;;9.90;7.50;;;10.00;99.90;;;;;;4915046;29;20245;-72
2021/04/20 08:09:24;;;;;;;11.75;7.60;;;10.00;99.90;;;;;;4915395;29;20217;-72
2021/04/20 08:11:55;;;;;;;8.88;7.95;;;10.10;99.90;;;;;;4896773;29;20235;-74
2021/04/20 08:14:30;;;;;;;9.50;8.15;;;10.20;99.90;;;;;;4901065;29;20212;-73
2021/04/20 08:17:06;;;;;;;9.65;8.15;;;10.30;99.90;;;;;;4897264;29;20214;-74
2021/04/20 08:19:37;;;;;;;9.20;8.20;;;10.40;99.90;;;;;;4908875;29;20793;-74
2021/04/20 08:22:06;;;;;;;15.48;7.18;;;10.50;99.90;;;;;;4901963;29;20702;-73
2021/04/20 08:24:40;;;;;;;9.90;7.00;;;10.60;99.90;;;;;;4901763;29;20227;-74
2021/04/20 08:27:13;;;;;;;10.35;9.35;;;10.60;99.90;;;;;;4902804;29;20210;-74
2021/04/20 08:29:42;;;;;;;9.23;8.13;;;10.60;99.90;;;;;;4902387;29;20199;-74
2021/04/20 08:32:15;;;;;;;9.15;7.97;;;10.70;99.90;;;;;;4906395;29;20651;-73
2021/04/20 08:34:46;;;;;;;12.18;7.93;;;10.80;99.90;;;;;;4898527;29;20258;-72
2021/04/20 08:37:19;;;;;;;7.65;6.90;;;10.90;99.90;;;;;;4896858;29;20214;-73
2021/04/20 08:39:53;;;;;;;10.70;7.85;;;11.00;99.90;;;;;;4897025;29;20310;-73
2021/04/20 08:42:26;;;;;;;9.23;7.57;;;11.10;99.90;;;;;;4906573;29;20226;-73
2021/04/20 08:45:04;;;;;;;10.07;7.70;;;11.10;99.90;;;;;;4904246;29;20231;-75
2021/04/20 08:47:36;;;;;;;12.25;8.55;;;11.30;99.90;;;;;;4914674;29;20731;-74
2021/04/20 08:50:07;;;;;;;9.90;7.65;;;11.40;99.90;;;;;;4902047;29;20231;-74
2021/04/20 08:52:46;;;;;;;9.32;8.43;;;11.40;99.90;;;;;;4895985;29;20211;-74
2021/04/20 08:55:30;;;;;;;9.85;6.97;;;11.50;99.90;;;;;;4914136;29;20206;-73
2021/04/20 08:58:24;;;;;;;10.52;7.53;;;11.60;99.90;;;;;;4913285;29;20225;-73
2021/04/20 09:01:02;;;;;;;9.10;6.90;;;11.60;99.90;;;;;;4902759;29;20303;-73
2021/04/20 09:03:33;;;;;;;9.23;7.45;;;11.70;99.90;;;;;;4896447;29;20231;-74
2021/04/20 09:06:04;;;;;;;12.02;8.02;;;11.80;99.90;;;;;;4896707;29;20556;-74
2021/04/20 09:08:35;;;;;;;6.60;6.10;;;11.90;99.90;;;;;;4899248;29;20207;-74
2021/04/20 09:11:10;;;;;;;7.95;5.97;;;11.90;99.90;;;;;;4902745;29;20250;-72
2021/04/20 09:13:43;;;;;;;7.20;6.50;;;12.00;99.90;;;;;;4910914;29;20205;-72
2021/04/20 09:16:13;;;;;;;7.00;6.30;;;12.10;99.90;;;;;;4901215;29;20284;-72
2021/04/20 09:18:42;;;;;;;6.20;5.65;;;12.20;99.90;;;;;;4901951;29;20207;-72
2021/04/20 09:21:14;;;;;;;7.05;6.13;;;12.20;99.90;;;;;;4907084;29;20734;-72
2021/04/20 09:24:15;;;;;;;6.80;6.30;;;12.20;99.90;;;;;;4914063;29;20211;-72
2021/04/20 09:26:48;;;;;;;7.03;6.40;;;12.40;99.90;;;;;;4915245;29;20341;-72
2021/04/20 09:29:20;;;;;;;7.18;6.57;;;12.50;99.90;;;;;;4914039;29;20253;-72
2021/04/20 09:31:58;;;;;;;9.18;7.45;;;12.60;99.90;;;;;;4912037;29;20226;-72
2021/04/20 09:34:34;;;;;;;7.47;6.78;;;12.60;99.90;;;;;;4903998;29;20282;-72
2021/04/20 09:37:02;;;;;;;6.45;5.80;;;12.80;99.90;;;;;;4904438;29;20207;-72
2021/04/20 09:39:34;;;;;;;8.88;6.20;;;12.90;99.90;;;;;;4896297;29;20262;-72
2021/04/20 09:42:04;;;;;;;8.32;6.00;;;12.90;99.90;;;;;;4910161;29;20234;-72
2021/04/20 09:44:42;;;;;;;7.88;6.07;;;12.90;99.90;;;;;;4904792;29;20242;-71
2021/04/20 09:47:21;;;;;;;7.40;6.70;;;13.10;99.90;;;;;;4909133;29;20210;-71
2021/04/20 09:50:04;;;;;;;6.05;5.65;;;13.20;99.90;;;;;;4912980;29;20269;-71
2021/04/20 09:52:42;;;;;;;7.93;6.50;;;13.40;99.90;;;;;;4902529;29;20819;-72
2021/04/20 09:55:15;;;;;;;6.68;5.60;;;13.40;99.90;;;;;;4908355;29;20210;-72
2021/04/20 09:57:47;;;;;;;5.93;5.43;;;13.50;99.90;;;;;;4907251;29;20203;-72
2021/04/20 10:00:15;;;;;;;5.85;5.35;;;13.60;99.90;;;;;;4905775;29;20211;-72
2021/04/20 10:02:52;;;;;;;6.10;5.53;;;13.70;99.90;;;;;;4914109;29;20219;-72
2021/04/20 10:05:28;;;;;;;6.50;4.68;;;13.80;99.90;;;;;;4909725;29;20275;-72
2021/04/20 10:08:10;;;;;;;6.90;5.40;;;13.80;99.90;;;;;;4914205;29;20210;-71
2021/04/20 10:10:50;;;;;;;5.35;4.75;;;14.00;99.90;;;;;;4906502;29;20592;-71
2021/04/20 10:13:45;;;;;;;7.72;5.03;;;14.00;99.90;;;;;;4902843;29;20215;-70
2021/04/20 10:16:17;;;;;;;5.57;5.17;;;14.10;99.90;;;;;;4897702;29;20233;-73
2021/04/20 10:18:49;;;;;;;4.68;4.38;;;14.20;99.90;;;;;;4899900;29;21004;-73
2021/04/20 10:21:21;;;;;;;5.90;5.30;;;14.30;99.90;;;;;;4901964;29;20254;-73
2021/04/20 10:24:08;;;;;;;5.33;4.83;;;14.40;99.90;;;;;;4912675;29;20473;-73
2021/04/20 10:26:42;;;;;;;5.17;4.77;;;14.40;99.90;;;;;;4909231;29;20980;-72
2021/04/20 10:29:13;;;;;;;4.80;4.10;;;14.40;99.90;;;;;;4910407;29;20470;-73
2021/04/20 10:31:47;;;;;;;4.70;4.33;;;14.60;99.90;;;;;;4901208;29;21002;-72
2021/04/20 10:34:17;;;;;;;5.40;5.00;;;14.70;99.60;;;;;;4909089;29;20840;-72
2021/04/20 10:36:48;;;;;;;4.50;4.20;;;14.80;99.00;;;;;;4917332;29;20466;-73
2021/04/20 10:39:14;;;;;;;5.53;4.87;;;14.90;98.00;;;;;;4915410;29;20543;-73
2021/04/20 10:41:44;;;;;;;4.03;3.83;;;14.90;97.40;;;;;;4910582;29;20515;-72
2021/04/20 10:44:13;;;;;;;4.50;4.10;;;15.00;94.90;;;;;;4913340;29;20491;-73
2021/04/20 10:46:41;;;;;;;4.30;3.77;;;15.10;94.00;;;;;;4913960;29;20470;-71
2021/04/20 10:49:08;;;;;;;4.77;4.37;;;15.10;93.40;;;;;;4916649;29;20574;-71
2021/04/20 10:51:37;;;;;;;4.23;3.97;;;15.20;93.60;;;;;;4911086;29;20581;-72
2021/04/20 10:54:05;;;;;;;5.03;4.03;;;15.20;93.30;;;;;;4917683;29;20466;-72
2021/04/20 10:56:32;;;;;;;3.87;3.67;;;15.20;92.40;;;;;;4900162;29;20471;-67
2021/04/20 10:59:00;;;;;;;6.70;4.03;;;15.30;91.10;;;;;;4898761;29;20467;-73
2021/04/20 11:01:29;;;;;;;3.90;3.70;;;15.30;90.80;;;;;;4910963;29;20502;-71
2021/04/20 11:03:59;;;;;;;4.80;4.37;;;15.40;88.80;;;;;;4898427;29;20466;-71
2021/04/20 11:06:43;;;;;;;3.67;3.47;;;15.50;89.10;;;;;;4915839;29;20926;-65
2021/04/20 11:09:10;;;;;;;4.50;4.10;;;15.50;88.30;;;;;;4917605;29;20462;-70
2021/04/20 11:11:36;;;;;;;4.37;4.07;;;15.50;89.90;;;;;;4904002;29;20490;-70
2021/04/20 11:14:03;;;;;;;4.07;3.77;;;15.50;90.40;;;;;;4915526;29;20831;-72
2021/04/20 11:16:35;;;;;;;5.10;4.70;;;15.60;90.30;;;;;;4916901;29;20470;-72
2021/04/20 11:19:05;;;;;;;4.67;2.70;;;15.80;90.70;;;;;;4901898;29;20941;-67
2021/04/20 11:21:35;;;;;;;3.50;3.30;;;15.90;85.60;;;;;;4915351;29;20494;-67
2021/04/20 11:24:13;;;;;;;2.87;2.77;;;15.80;83.50;;;;;;4915792;29;20482;-68
2021/04/20 11:26:43;;;;;;;4.37;3.97;;;15.90;83.80;;;;;;4897243;29;20511;-74
2021/04/20 11:29:13;;;;;;;4.37;3.97;;;16.00;85.10;;;;;;4915775;29;20467;-74
2021/04/20 11:31:48;;;;;;;3.63;3.07;;;16.10;83.80;;;;;;4905868;29;20482;-74
2021/04/20 11:34:17;;;;;;;3.03;2.93;;;16.10;82.50;;;;;;4919107;29;20455;-74
2021/04/20 11:36:46;;;;;;;4.07;3.40;;;16.10;80.30;;;;;;4917535;29;20479;-74
2021/04/20 11:39:18;;;;;;;3.67;3.47;;;16.10;79.30;;;;;;4913185;29;20582;-74
2021/04/20 11:41:54;;;;;;;4.13;3.80;;;16.00;78.70;;;;;;4903023;29;20486;-74
2021/04/20 11:44:22;;;;;;;3.50;3.20;;;16.00;80.20;;;;;;4914119;29;20479;-73
2021/04/20 11:46:51;;;;;;;3.77;3.40;;;16.10;79.70;;;;;;4898072;29;20627;-72
2021/04/20 11:49:21;;;;;;;5.03;3.97;;;16.10;79.00;;;;;;4899349;29;20881;-72
2021/04/20 11:51:49;;;;;;;3.90;3.70;;;16.20;79.50;;;;;;4907815;29;21022;-72
2021/04/20 11:54:20;;;;;;;4.47;4.07;;;16.20;80.10;;;;;;4910571;29;20494;-72
2021/04/20 11:56:46;;;;;;;3.67;3.47;;;16.20;77.60;;;;;;4912257;29;20562;-74
2021/04/20 11:59:13;;;;;;;3.07;2.90;;;16.20;77.10;;;;;;4905115;29;20472;-73
2021/04/20 12:01:41;;;;;;;4.20;3.17;;;16.30;76.10;;;;;;4902289;29;21025;-73
2021/04/20 12:04:09;;;;;;;3.90;3.50;;;16.30;76.00;;;;;;4906569;29;20502;-75
2021/04/20 12:06:42;;;;;;;3.20;3.00;;;16.30;76.60;;;;;;4916333;29;20483;-76
2021/04/20 12:09:09;;;;;;;3.43;3.13;;;16.20;73.40;;;;;;4906005;29;20952;-75
2021/04/20 12:11:36;;;;;;;3.80;3.50;;;16.40;73.10;;;;;;4913397;29;20588;-75
2021/04/20 12:14:04;;;;;;;5.67;2.80;;;16.40;72.10;;;;;;4907020;29;20489;-73
2021/04/20 12:16:35;;;;;;;4.20;3.87;;;16.40;72.00;;;;;;4897447;29;20496;-76
2021/04/20 12:19:07;;;;;;;3.93;3.73;;;16.40;71.70;;;;;;4900881;29;20464;-76
2021/04/20 12:21:38;;;;;;;3.70;3.30;;;16.50;72.90;;;;;;4899919;29;20483;-76
2021/04/20 12:24:08;;;;;;;3.97;3.67;;;16.50;70.60;;;;;;4899783;29;20479;-76
2021/04/20 12:26:35;;;;;;;4.40;3.00;;;16.50;73.80;;;;;;4898071;29;20818;-75
2021/04/20 12:29:05;;;;;;;3.80;3.70;;;16.60;73.50;;;;;;4904125;29;20541;-74
2021/04/20 12:31:34;;;;;;;3.10;2.90;;;16.70;72.50;;;;;;4915882;29;20486;-74
2021/04/20 12:34:01;;;;;;;3.30;3.20;;;16.70;70.10;;;;;;4914824;29;20802;-73
2021/04/20 12:36:29;;;;;;;4.27;3.33;;;16.80;69.50;;;;;;4915741;29;20482;-72
2021/04/20 12:38:58;;;;;;;4.53;3.20;;;16.70;69.40;;;;;;4914371;29;20474;-71
2021/04/20 12:41:28;;;;;;;4.30;3.90;;;16.70;69.80;;;;;;4911343;29;20850;-74
2021/04/20 12:43:57;;;;;;;4.10;3.90;;;16.80;69.60;;;;;;4914231;29;20467;-73
2021/04/20 12:46:25;;;;;;;3.90;3.70;;;16.80;69.00;;;;;;4915939;29;20478;-73
2021/04/20 12:48:55;;;;;;;5.00;3.90;;;16.70;70.10;;;;;;4914332;29;20466;-72
2021/04/20 12:51:23;;;;;;;3.40;3.10;;;16.80;70.00;;;;;;4915336;29;20482;-70
2021/04/20 12:53:51;;;;;;;3.60;3.40;;;16.80;70.40;;;;;;4909133;29;20470;-70
2021/04/20 12:56:29;;;;;;;3.50;3.30;;;16.80;71.30;;;;;;4914874;29;20519;-73
2021/04/20 12:58:58;;;;;;;2.97;2.90;;;16.80;70.80;;;;;;4898315;29;20466;-71
2021/04/20 13:01:26;;;;;;;3.87;3.50;;;16.90;69.80;;;;;;4905162;29;20494;-71
2021/04/20 13:03:54;;;;;;;3.50;3.30;;;16.80;69.20;;;;;;4898717;29;20483;-73
2021/04/20 13:06:22;;;;;;;6.53;3.60;;;16.80;69.60;;;;;;4898461;29;20490;-72
2021/04/20 13:08:52;;;;;;;3.20;3.00;;;16.80;67.90;;;;;;4910420;29;20478;-72
2021/04/20 13:11:27;;;;;;;4.10;3.83;;;16.80;66.20;;;;;;4910515;29;21074;-72
2021/04/20 13:13:55;;;;;;;4.40;4.20;;;16.80;67.00;;;;;;4898550;29;20463;-73
2021/04/20 13:16:29;;;;;;;3.97;3.67;;;16.80;66.40;;;;;;4911761;29;20951;-74
2021/04/20 13:19:02;;;;;;;3.70;3.40;;;16.80;66.70;;;;;;4912925;29;20474;-74
2021/04/20 13:21:31;;;;;;;4.10;3.90;;;16.80;66.90;;;;;;4903589;29;20490;-72
2021/04/20 13:23:59;;;;;;;5.40;3.90;;;16.90;67.60;;;;;;4914647;29;20470;-72
2021/04/20 13:26:28;;;;;;;4.23;4.00;;;16.90;66.80;;;;;;4912962;29;20966;-71
2021/04/20 13:28:56;;;;;;;10.13;3.33;;;16.90;68.40;;;;;;4913869;29;20490;-72
2021/04/20 13:31:25;;;;;;;5.30;4.20;;;16.90;69.30;;;;;;4910873;29;20543;-72
2021/04/20 13:33:55;;;;;;;3.97;3.77;;;17.00;67.80;;;;;;4904215;29;20522;-72
2021/04/20 13:36:23;;;;;;;4.63;4.20;;;17.00;67.60;;;;;;4910246;29;20466;-74
2021/04/20 13:38:52;;;;;;;4.33;3.93;;;17.00;66.70;;;;;;4896844;29;20471;-73
2021/04/20 13:41:19;;;;;;;4.57;4.20;;;17.00;65.70;;;;;;4901775;29;20491;-74
2021/04/20 13:43:49;;;;;;;5.30;3.73;;;17.00;68.20;;;;;;4896161;29;20960;-76
2021/04/20 13:46:16;;;;;;;4.10;3.90;;;17.00;67.30;;;;;;4909534;29;20490;-77
2021/04/20 13:48:43;;;;;;;4.33;4.13;;;17.00;67.30;;;;;;4914532;29;20474;-74
2021/04/20 13:51:11;;;;;;;4.57;4.17;;;17.00;66.90;;;;;;4904251;29;20483;-73
2021/04/20 13:53:41;;;;;;;3.50;3.30;;;16.90;67.00;;;;;;4905130;29;20467;-68
2021/04/20 13:56:10;;;;;;;3.80;3.47;;;16.90;66.40;;;;;;4914615;29;20462;-72
2021/04/20 13:58:41;;;;;;;3.83;3.53;;;16.90;67.10;;;;;;4914970;29;20483;-72
2021/04/20 14:01:09;;;;;;;4.43;3.97;;;17.00;66.10;;;;;;4913676;29;20592;-72
2021/04/20 14:03:42;;;;;;;3.30;3.10;;;16.90;65.40;;;;;;4914504;29;20493;-72
2021/04/20 14:06:11;;;;;;;5.30;3.70;;;16.90;67.50;;;;;;4914393;29;20486;-73
2021/04/20 14:08:39;;;;;;;3.73;3.37;;;16.90;67.50;;;;;;4914087;29;20522;-72
2021/04/20 14:11:08;;;;;;;5.33;4.93;;;17.00;67.90;;;;;;4907982;29;20511;-72
2021/04/20 14:13:39;;;;;;;2.93;2.83;;;17.00;67.20;;;;;;4895393;29;20814;-72
2021/04/20 14:16:09;;;;;;;3.97;3.60;;;17.10;67.40;;;;;;4895706;29;20471;-72
2021/04/20 14:18:37;;;;;;;4.00;3.63;;;17.00;66.80;;;;;;4896193;29;20933;-71
2021/04/20 14:21:11;;;;;;;3.87;3.50;;;16.90;66.80;;;;;;4901384;29;20502;-72
2021/04/20 14:23:39;;;;;;;4.13;3.13;;;16.90;67.30;;;;;;4914215;29;20474;-71
2021/04/20 14:26:14;;;;;;;3.37;3.07;;;16.90;68.10;;;;;;4914445;29;20490;-72
2021/04/20 14:28:41;;;;;;;5.00;2.47;;;17.00;68.90;;;;;;4914139;29;20998;-71
2021/04/20 14:31:08;;;;;;;3.20;3.10;;;17.00;69.60;;;;;;4908090;29;20487;-72
2021/04/20 14:33:39;;;;;;;3.33;2.80;;;17.10;68.90;;;;;;4895059;29;20972;-72
2021/04/20 14:36:09;;;;;;;4.53;3.70;;;17.00;68.00;;;;;;4895846;29;20497;-72
2021/04/20 14:38:38;;;;;;;3.63;3.33;;;17.00;68.70;;;;;;4893807;29;20987;-72
2021/04/20 14:41:05;;;;;;;2.87;2.77;;;17.00;68.10;;;;;;4900876;29;20486;-72
2021/04/20 14:43:33;;;;;;;3.73;3.43;;;17.00;67.00;;;;;;4914041;29;20470;-72
2021/04/20 14:46:01;;;;;;;3.13;2.73;;;16.90;66.90;;;;;;4914347;29;21005;-72
2021/04/20 14:48:31;;;;;;;3.20;2.97;;;17.00;67.00;;;;;;4914126;29;20466;-72
2021/04/20 14:50:57;;;;;;;3.17;2.90;;;16.90;67.10;;;;;;4912009;29;20518;-72
2021/04/20 14:53:26;;;;;;;3.90;3.10;;;16.90;68.00;;;;;;4905181;29;21007;-72
2021/04/20 14:55:54;;;;;;;3.17;2.87;;;17.00;68.80;;;;;;4895693;29;20459;-73
2021/04/20 14:58:26;;;;;;;3.10;2.80;;;17.00;68.20;;;;;;4894876;29;20530;-73
2021/04/20 15:00:57;;;;;;;2.67;2.57;;;17.00;67.10;;;;;;4898563;29;20894;-73
2021/04/20 15:03:25;;;;;;;3.30;3.00;;;16.90;66.90;;;;;;4916860;29;20489;-73
2021/04/20 15:05:58;;;;;;;3.10;3.00;;;16.80;67.00;;;;;;4917686;29;20927;-73
2021/04/20 15:08:33;;;;;;;2.77;2.60;;;16.70;67.50;;;;;;4916865;29;20955;-73
2021/04/20 15:11:02;;;;;;;2.30;2.20;;;16.70;67.20;;;;;;4913232;29;20490;-73
2021/04/20 15:13:34;;;;;;;4.10;2.70;;;16.70;67.60;;;;;;4898104;29;20504;-73
2021/04/20 15:16:04;;;;;;;3.73;3.40;;;16.70;69.30;;;;;;4900460;29;20988;-74
2021/04/20 15:18:33;;;;;;;2.50;2.40;;;16.70;68.80;;;;;;4900594;29;20854;-74
2021/04/20 15:21:10;;;;;;;2.90;2.63;;;16.70;68.40;;;;;;4903786;29;21061;-74
2021/04/20 15:23:46;;;;;;;2.63;2.43;;;16.80;68.20;;;;;;4918364;29;20482;-74
2021/04/20 15:26:14;;;;;;;2.47;2.37;;;16.80;67.50;;;;;;4917587;29;20486;-74
2021/04/20 15:28:42;;;;;;;2.93;2.73;;;16.70;66.70;;;;;;4913650;29;20529;-74
2021/04/20 15:31:17;;;;;;;2.73;2.63;;;16.70;66.50;;;;;;4917797;29;20838;-74
2021/04/20 15:33:45;;;;;;;2.70;2.60;;;16.80;67.10;;;;;;4912216;29;20926;-74
2021/04/20 15:36:14;;;;;;;2.60;2.50;;;16.80;66.00;;;;;;4912272;29;20468;-74
2021/04/20 15:38:46;;;;;;;2.40;2.20;;;16.80;64.10;;;;;;4915042;29;21122;-74
2021/04/20 15:41:13;;;;;;;2.60;2.50;;;16.70;63.80;;;;;;4915561;29;20540;-74
2021/04/20 15:43:43;;;;;;;2.33;2.23;;;16.60;63.50;;;;;;4908451;29;20490;-75
2021/04/20 15:46:11;;;;;;;2.70;2.60;;;16.60;63.70;;;;;;4898485;29;20491;-75
2021/04/20 15:48:42;;;;;;;2.47;2.27;;;16.60;64.00;;;;;;4901726;29;20959;-75
2021/04/20 15:51:18;;;;;;;2.00;1.90;;;16.60;63.80;;;;;;4917093;29;20497;-75
2021/04/20 15:53:49;;;;;;;2.60;2.50;;;16.60;63.90;;;;;;4908608;29;20501;-76
2021/04/20 15:56:20;;;;;;;3.40;2.83;;;16.70;65.10;;;;;;4897900;29;20980;-75
2021/04/20 15:58:53;;;;;;;2.93;2.77;;;16.70;63.40;;;;;;4901019;29;20495;-76
2021/04/20 16:01:21;;;;;;;5.30;3.13;;;16.70;63.90;;;;;;4898282;29;20499;-75
2021/04/20 16:03:51;;;;;;;2.53;2.33;;;16.70;62.90;;;;;;4909775;29;20471;-74
2021/04/20 16:06:17;;;;;;;3.37;2.50;;;16.70;63.50;;;;;;4905917;29;20843;-74
2021/04/20 16:08:46;;;;;;;4.40;2.37;;;16.70;62.70;;;;;;4925463;29;20586;-75
2021/04/20 16:11:14;;;;;;;2.13;2.13;;;16.60;62.90;;;;;;4914247;29;20569;-73
2021/04/20 16:13:45;;;;;;;2.23;2.03;;;16.60;62.20;;;;;;4920762;29;20515;-74
2021/04/20 16:16:17;;;;;;;2.40;2.17;;;16.50;62.40;;;;;;4916897;29;20462;-74
2021/04/20 16:18:46;;;;;;;2.60;2.40;;;16.50;62.50;;;;;;4916768;29;20474;-73
2021/04/20 16:21:14;;;;;;;2.07;2.00;;;16.50;61.10;;;;;;4909835;29;20554;-74
2021/04/20 16:23:41;;;;;;;1.83;1.73;;;16.40;61.60;;;;;;4910736;29;20613;-71
2021/04/20 16:26:15;;;;;;;2.27;2.17;;;16.30;61.20;;;;;;4913719;29;20517;-71
2021/04/20 16:28:42;;;;;;;2.23;2.03;;;16.30;61.70;;;;;;4897306;29;20558;-71
2021/04/20 16:31:13;;;;;;;3.03;1.97;;;16.30;60.90;;;;;;4898707;29;20493;-72
2021/04/20 16:33:40;;;;;;;2.00;1.90;;;16.20;60.40;;;;;;4899015;29;20460;-71
2021/04/20 16:36:12;;;;;;;2.57;2.00;;;16.20;60.80;;;;;;4909630;29;20466;-72
2021/04/20 16:39:09;;;;;;;2.27;2.07;;;16.10;61.20;;;;;;4898027;29;20448;-72
2021/04/20 16:41:50;;;;;;;2.20;2.20;;;16.00;60.60;;;;;;4900056;29;20494;-72
2021/04/20 16:44:32;;;;;;;2.30;1.97;;;16.00;60.60;;;;;;4907865;29;21134;-72
2021/04/20 16:47:21;;;;;;;1.83;1.73;;;15.90;60.30;;;;;;4897712;29;20471;-72
2021/04/20 16:50:13;;;;;;;2.60;2.50;;;15.90;59.80;;;;;;4914698;29;20527;-72
2021/04/20 16:52:47;;;;;;;3.13;2.57;;;15.70;60.10;;;;;;4913133;29;20466;-71
2021/04/20 16:55:18;;;;;;;4.33;2.60;;;15.70;60.60;;;;;;4913508;29;20451;-72
2021/04/20 16:58:29;;;;;;;2.27;2.17;;;15.70;60.00;;;;;;4907209;29;20479;-71
2021/04/20 17:01:04;;;;;;;2.57;2.13;;;15.60;60.50;;;;;;4914388;29;20501;-72
2021/04/20 17:03:53;;;;;;;2.50;2.03;;;15.50;60.20;;;;;;4905155;29;20470;-71